Mildenhall, United Kingdom
Current Conditions -  °F | °C
As of 7:58 AM on Tuesday 27 Jan 2015 (Local Time) from EGUN Reporting Station
Clear Clear  
Wind Chill: 31°   Ceiling: Unl
Heat Index: 36°   Visibility: 6mi
Dew Point: 35°   Wind: 7mph
Humidity: 95%   Direction: 260°W
Pressure: 30.3"   Gusts: NA
Location:  52.35°N, 0.52°E
Report Text: EGUN 270758Z AUTO 26006KT 9999 CLR 02/02 A3030 RMK AO2 SLP264 T00230016
Loading
Personal Weather Stations






























Interactive Weather Map New forecast layout! Learn more

10-Day Weather Forecast

Advertisements
Track Severe Weather on mobile